sensor_id;sensor_type;location;lat;lon;timestamp;pressure;altitude;pressure_sealevel;temperature;humidity
23473;BME280;11909;52.516;13.564;2022-09-13T00:01:56;100640.38;;;13.19;95.99
23473;BME280;11909;52.516;13.564;2022-09-13T00:04:24;100647.63;;;13.15;96.46
23473;BME280;11909;52.516;13.564;2022-09-13T00:06:51;100639.97;;;13.12;97.34
23473;BME280;11909;52.516;13.564;2022-09-13T00:09:17;100637.50;;;13.11;97.19
23473;BME280;11909;52.516;13.564;2022-09-13T00:11:43;100633.09;;;13.10;97.61
23473;BME280;11909;52.516;13.564;2022-09-13T00:14:10;100627.31;;;13.11;97.39
23473;BME280;11909;52.516;13.564;2022-09-13T00:16:36;100627.53;;;13.15;96.71
23473;BME280;11909;52.516;13.564;2022-09-13T00:19:03;100623.94;;;13.14;96.24
23473;BME280;11909;52.516;13.564;2022-09-13T00:21:30;100618.44;;;13.14;96.41
23473;BME280;11909;52.516;13.564;2022-09-13T00:23:57;100625.06;;;13.13;96.18
23473;BME280;11909;52.516;13.564;2022-09-13T00:26:25;100613.31;;;13.08;97.01
23473;BME280;11909;52.516;13.564;2022-09-13T00:28:53;100604.31;;;13.02;97.75
23473;BME280;11909;52.516;13.564;2022-09-13T00:31:21;100606.25;;;13.01;97.39
23473;BME280;11909;52.516;13.564;2022-09-13T00:33:49;100603.50;;;13.01;97.31
23473;BME280;11909;52.516;13.564;2022-09-13T00:36:15;100607.28;;;13.05;96.78
23473;BME280;11909;52.516;13.564;2022-09-13T00:38:43;100600.22;;;12.99;97.05
23473;BME280;11909;52.516;13.564;2022-09-13T00:41:12;100592.75;;;13.00;96.75
23473;BME280;11909;52.516;13.564;2022-09-13T00:43:43;100587.84;;;12.97;96.92
23473;BME280;11909;52.516;13.564;2022-09-13T00:46:12;100582.25;;;13.02;96.49
23473;BME280;11909;52.516;13.564;2022-09-13T00:48:39;100575.84;;;13.07;95.75
23473;BME280;11909;52.516;13.564;2022-09-13T00:51:07;100565.44;;;13.03;96.63
23473;BME280;11909;52.516;13.564;2022-09-13T00:53:38;100566.28;;;13.04;96.47
23473;BME280;11909;52.516;13.564;2022-09-13T00:56:10;100567.91;;;13.05;96.12
23473;BME280;11909;52.516;13.564;2022-09-13T00:58:41;100558.06;;;12.99;96.50
23473;BME280;11909;52.516;13.564;2022-09-13T01:01:12;100555.03;;;13.00;96.56
23473;BME280;11909;52.516;13.564;2022-09-13T01:03:40;100553.91;;;13.01;96.15
23473;BME280;11909;52.516;13.564;2022-09-13T01:06:10;100546.88;;;12.95;95.92
23473;BME280;11909;52.516;13.564;2022-09-13T01:08:39;100555.63;;;12.97;96.48
23473;BME280;11909;52.516;13.564;2022-09-13T01:11:14;100550.66;;;12.99;95.95
23473;BME280;11909;52.516;13.564;2022-09-13T01:13:43;100535.38;;;13.07;94.96
23473;BME280;11909;52.516;13.564;2022-09-13T01:16:10;100547.78;;;13.04;95.33
23473;BME280;11909;52.516;13.564;2022-09-13T01:18:36;100543.63;;;13.07;95.34
23473;BME280;11909;52.516;13.564;2022-09-13T01:21:29;100546.78;;;13.00;95.05
23473;BME280;11909;52.516;13.564;2022-09-13T01:24:15;100542.88;;;13.01;94.64
23473;BME280;11909;52.516;13.564;2022-09-13T01:30:16;100533.78;;;13.01;94.96
23473;BME280;11909;52.516;13.564;2022-09-13T01:32:54;100531.47;;;12.94;95.49
23473;BME280;11909;52.516;13.564;2022-09-13T01:35:33;100523.38;;;12.98;95.02
23473;BME280;11909;52.516;13.564;2022-09-13T01:38:11;100537.16;;;12.98;95.20
23473;BME280;11909;52.516;13.564;2022-09-13T01:40:51;100540.75;;;12.98;94.82
23473;BME280;11909;52.516;13.564;2022-09-13T01:43:26;100535.63;;;12.91;95.10
23473;BME280;11909;52.516;13.564;2022-09-13T01:46:03;100530.50;;;12.85;95.18
23473;BME280;11909;52.516;13.564;2022-09-13T01:48:44;100512.84;;;12.86;97.13
23473;BME280;11909;52.516;13.564;2022-09-13T01:51:20;100508.56;;;12.80;97.47
23473;BME280;11909;52.516;13.564;2022-09-13T01:53:56;100512.94;;;12.81;96.51
23473;BME280;11909;52.516;13.564;2022-09-13T01:56:27;100506.50;;;12.71;96.63
23473;BME280;11909;52.516;13.564;2022-09-13T01:58:58;100502.13;;;12.70;96.96
23473;BME280;11909;52.516;13.564;2022-09-13T02:01:32;100494.66;;;12.71;97.28
23473;BME280;11909;52.516;13.564;2022-09-13T02:04:03;100491.28;;;12.74;97.01
23473;BME280;11909;52.516;13.564;2022-09-13T02:06:33;100489.06;;;12.76;96.31
23473;BME280;11909;52.516;13.564;2022-09-13T02:09:02;100496.59;;;12.70;96.18
23473;BME280;11909;52.516;13.564;2022-09-13T02:11:35;100479.25;;;12.70;96.26
23473;BME280;11909;52.516;13.564;2022-09-13T02:14:06;100479.75;;;12.72;96.56
23473;BME280;11909;52.516;13.564;2022-09-13T02:16:38;100475.91;;;12.73;97.00
23473;BME280;11909;52.516;13.564;2022-09-13T02:19:07;100477.84;;;12.72;96.00
23473;BME280;11909;52.516;13.564;2022-09-13T02:21:37;100491.81;;;12.76;95.94
23473;BME280;11909;52.516;13.564;2022-09-13T02:24:09;100485.19;;;12.77;95.68
23473;BME280;11909;52.516;13.564;2022-09-13T02:26:38;100478.56;;;12.78;95.71
23473;BME280;11909;52.516;13.564;2022-09-13T02:29:09;100476.91;;;12.77;95.42
23473;BME280;11909;52.516;13.564;2022-09-13T02:31:40;100475.91;;;12.73;96.94
23473;BME280;11909;52.516;13.564;2022-09-13T02:34:11;100472.34;;;12.72;96.71
23473;BME280;11909;52.516;13.564;2022-09-13T02:36:40;100470.25;;;12.64;96.43
23473;BME280;11909;52.516;13.564;2022-09-13T02:39:11;100479.13;;;12.61;96.49
23473;BME280;11909;52.516;13.564;2022-09-13T02:41:43;100462.91;;;12.59;97.32
23473;BME280;11909;52.516;13.564;2022-09-13T02:44:17;100450.47;;;12.62;97.84
23473;BME280;11909;52.516;13.564;2022-09-13T02:47:05;100449.44;;;12.58;97.70
23473;BME280;11909;52.516;13.564;2022-09-13T02:49:43;100439.78;;;12.60;97.94
23473;BME280;11909;52.516;13.564;2022-09-13T02:52:18;100440.47;;;12.66;97.08
23473;BME280;11909;52.516;13.564;2022-09-13T02:54:51;100441.09;;;12.63;96.95
23473;BME280;11909;52.516;13.564;2022-09-13T02:57:26;100442.13;;;12.67;96.56
23473;BME280;11909;52.516;13.564;2022-09-13T02:59:56;100434.78;;;12.62;97.50
23473;BME280;11909;52.516;13.564;2022-09-13T03:02:28;100446.22;;;12.70;96.19
23473;BME280;11909;52.516;13.564;2022-09-13T03:04:57;100443.47;;;12.70;95.77
23473;BME280;11909;52.516;13.564;2022-09-13T03:07:24;100435.72;;;12.72;96.23
23473;BME280;11909;52.516;13.564;2022-09-13T03:09:52;100420.03;;;12.72;96.60
23473;BME280;11909;52.516;13.564;2022-09-13T03:15:29;100408.50;;;12.70;97.21
23473;BME280;11909;52.516;13.564;2022-09-13T03:18:07;100398.59;;;12.69;97.26
23473;BME280;11909;52.516;13.564;2022-09-13T03:20:43;100394.41;;;12.72;97.09
23473;BME280;11909;52.516;13.564;2022-09-13T03:23:24;100385.88;;;12.73;97.41
23473;BME280;11909;52.516;13.564;2022-09-13T03:26:07;100378.50;;;12.69;97.68
23473;BME280;11909;52.516;13.564;2022-09-13T03:28:43;100387.69;;;12.78;95.99
23473;BME280;11909;52.516;13.564;2022-09-13T03:31:18;100380.88;;;12.75;95.94
23473;BME280;11909;52.516;13.564;2022-09-13T03:33:53;100378.63;;;12.77;95.87
23473;BME280;11909;52.516;13.564;2022-09-13T03:36:26;100383.28;;;12.77;95.67
23473;BME280;11909;52.516;13.564;2022-09-13T03:39:00;100381.38;;;12.77;95.24
23473;BME280;11909;52.516;13.564;2022-09-13T03:41:32;100385.53;;;12.75;95.33
23473;BME280;11909;52.516;13.564;2022-09-13T03:44:03;100381.78;;;12.71;95.73
23473;BME280;11909;52.516;13.564;2022-09-13T03:46:34;100386.53;;;12.65;96.58
23473;BME280;11909;52.516;13.564;2022-09-13T03:49:05;100388.78;;;12.63;97.00
23473;BME280;11909;52.516;13.564;2022-09-13T03:51:34;100388.09;;;12.57;97.37
23473;BME280;11909;52.516;13.564;2022-09-13T03:54:03;100386.34;;;12.61;97.11
23473;BME280;11909;52.516;13.564;2022-09-13T03:56:30;100388.19;;;12.66;96.70
23473;BME280;11909;52.516;13.564;2022-09-13T03:58:57;100383.59;;;12.61;97.30
23473;BME280;11909;52.516;13.564;2022-09-13T04:01:23;100387.75;;;12.59;97.64
23473;BME280;11909;52.516;13.564;2022-09-13T04:03:51;100378.72;;;12.58;97.80
23473;BME280;11909;52.516;13.564;2022-09-13T04:06:19;100369.31;;;12.59;98.36
23473;BME280;11909;52.516;13.564;2022-09-13T04:08:45;100360.25;;;12.59;98.20
23473;BME280;11909;52.516;13.564;2022-09-13T04:11:11;100354.44;;;12.60;98.79
23473;BME280;11909;52.516;13.564;2022-09-13T04:13:38;100351.69;;;12.60;98.83
23473;BME280;11909;52.516;13.564;2022-09-13T04:16:06;100356.06;;;12.61;98.78
23473;BME280;11909;52.516;13.564;2022-09-13T04:18:33;100349.97;;;12.65;97.97
23473;BME280;11909;52.516;13.564;2022-09-13T04:21:01;100342.63;;;12.74;96.57
23473;BME280;11909;52.516;13.564;2022-09-13T04:23:30;100342.09;;;12.72;97.34
23473;BME280;11909;52.516;13.564;2022-09-13T04:26:00;100344.34;;;12.70;96.99
23473;BME280;11909;52.516;13.564;2022-09-13T04:28:27;100349.56;;;12.71;96.34
23473;BME280;11909;52.516;13.564;2022-09-13T04:30:53;100350.56;;;12.75;95.89
23473;BME280;11909;52.516;13.564;2022-09-13T04:33:19;100337.53;;;12.81;94.57
23473;BME280;11909;52.516;13.564;2022-09-13T04:35:47;100335.59;;;12.82;94.88
23473;BME280;11909;52.516;13.564;2022-09-13T04:38:14;100332.72;;;12.87;94.20
23473;BME280;11909;52.516;13.564;2022-09-13T04:40:42;100333.66;;;12.82;94.58
23473;BME280;11909;52.516;13.564;2022-09-13T04:43:08;100331.81;;;12.77;95.22
23473;BME280;11909;52.516;13.564;2022-09-13T04:45:35;100329.16;;;12.86;94.21
23473;BME280;11909;52.516;13.564;2022-09-13T04:48:02;100323.44;;;12.83;93.99
23473;BME280;11909;52.516;13.564;2022-09-13T04:50:29;100316.31;;;12.82;94.43
23473;BME280;11909;52.516;13.564;2022-09-13T04:52:55;100316.81;;;12.84;94.76
23473;BME280;11909;52.516;13.564;2022-09-13T04:55:22;100319.88;;;12.82;94.15
23473;BME280;11909;52.516;13.564;2022-09-13T04:57:53;100311.94;;;12.81;94.10
23473;BME280;11909;52.516;13.564;2022-09-13T05:00:20;100308.38;;;12.80;94.13
23473;BME280;11909;52.516;13.564;2022-09-13T05:02:47;100310.59;;;12.78;93.90
23473;BME280;11909;52.516;13.564;2022-09-13T05:05:14;100307.31;;;12.76;94.11
23473;BME280;11909;52.516;13.564;2022-09-13T05:07:40;100318.34;;;12.76;93.93
23473;BME280;11909;52.516;13.564;2022-09-13T05:10:08;100307.03;;;12.77;94.02
23473;BME280;11909;52.516;13.564;2022-09-13T05:12:34;100304.56;;;12.76;94.39
23473;BME280;11909;52.516;13.564;2022-09-13T05:15:03;100297.66;;;12.79;94.50
23473;BME280;11909;52.516;13.564;2022-09-13T05:17:31;100305.41;;;12.76;94.97
23473;BME280;11909;52.516;13.564;2022-09-13T05:19:58;100305.63;;;12.80;94.66
23473;BME280;11909;52.516;13.564;2022-09-13T05:22:25;100301.13;;;12.84;94.14
23473;BME280;11909;52.516;13.564;2022-09-13T05:24:51;100297.13;;;12.90;93.19
23473;BME280;11909;52.516;13.564;2022-09-13T05:27:18;100298.47;;;12.93;93.37
23473;BME280;11909;52.516;13.564;2022-09-13T05:29:44;100285.81;;;12.92;93.30
23473;BME280;11909;52.516;13.564;2022-09-13T05:32:12;100282.00;;;13.02;92.66
23473;BME280;11909;52.516;13.564;2022-09-13T05:34:39;100276.19;;;13.03;92.82
23473;BME280;11909;52.516;13.564;2022-09-13T05:37:06;100262.31;;;13.09;92.45
23473;BME280;11909;52.516;13.564;2022-09-13T05:39:32;100278.84;;;13.09;92.31
23473;BME280;11909;52.516;13.564;2022-09-13T05:42:00;100281.91;;;13.07;92.70
23473;BME280;11909;52.516;13.564;2022-09-13T05:44:27;100277.22;;;13.08;93.02
23473;BME280;11909;52.516;13.564;2022-09-13T05:46:53;100272.03;;;13.06;92.82
23473;BME280;11909;52.516;13.564;2022-09-13T05:49:21;100273.22;;;13.14;92.61
23473;BME280;11909;52.516;13.564;2022-09-13T05:51:48;100277.81;;;13.18;92.29
23473;BME280;11909;52.516;13.564;2022-09-13T05:54:15;100278.31;;;13.20;92.12
23473;BME280;11909;52.516;13.564;2022-09-13T05:56:42;100275.53;;;13.20;92.21
23473;BME280;11909;52.516;13.564;2022-09-13T05:59:11;100275.13;;;13.27;92.37
23473;BME280;11909;52.516;13.564;2022-09-13T06:01:38;100277.38;;;13.25;92.43
23473;BME280;11909;52.516;13.564;2022-09-13T06:04:04;100279.00;;;13.26;92.24
23473;BME280;11909;52.516;13.564;2022-09-13T06:06:33;100288.28;;;13.30;92.70
23473;BME280;11909;52.516;13.564;2022-09-13T06:09:00;100285.84;;;13.29;93.42
23473;BME280;11909;52.516;13.564;2022-09-13T06:11:26;100294.41;;;13.27;94.10
23473;BME280;11909;52.516;13.564;2022-09-13T06:13:53;100300.22;;;13.26;94.69
23473;BME280;11909;52.516;13.564;2022-09-13T06:16:19;100292.59;;;13.23;95.69
23473;BME280;11909;52.516;13.564;2022-09-13T06:18:46;100294.22;;;13.24;96.06
23473;BME280;11909;52.516;13.564;2022-09-13T06:21:14;100301.19;;;13.21;96.81
23473;BME280;11909;52.516;13.564;2022-09-13T06:23:43;100306.81;;;13.16;97.37
23473;BME280;11909;52.516;13.564;2022-09-13T06:26:11;100308.84;;;13.10;97.85
23473;BME280;11909;52.516;13.564;2022-09-13T06:28:38;100297.31;;;13.08;98.42
23473;BME280;11909;52.516;13.564;2022-09-13T06:31:07;100308.22;;;13.13;99.13
23473;BME280;11909;52.516;13.564;2022-09-13T06:33:34;100295.38;;;13.09;99.36
23473;BME280;11909;52.516;13.564;2022-09-13T06:36:02;100300.06;;;13.08;99.51
23473;BME280;11909;52.516;13.564;2022-09-13T06:38:28;100304.25;;;13.05;100.00
23473;BME280;11909;52.516;13.564;2022-09-13T06:41:00;100300.88;;;13.09;100.00
23473;BME280;11909;52.516;13.564;2022-09-13T06:43:27;100306.38;;;13.09;100.00
23473;BME280;11909;52.516;13.564;2022-09-13T06:45:53;100308.13;;;13.04;100.00
23473;BME280;11909;52.516;13.564;2022-09-13T06:48:23;100318.94;;;13.01;100.00
23473;BME280;11909;52.516;13.564;2022-09-13T06:50:50;100320.56;;;13.02;100.00
23473;BME280;11909;52.516;13.564;2022-09-13T06:53:16;100298.53;;;13.02;100.00
23473;BME280;11909;52.516;13.564;2022-09-13T06:55:42;100285.09;;;13.00;100.00
23473;BME280;11909;52.516;13.564;2022-09-13T06:58:10;100280.09;;;13.02;100.00
23473;BME280;11909;52.516;13.564;2022-09-13T07:00:37;100282.44;;;13.09;100.00
23473;BME280;11909;52.516;13.564;2022-09-13T07:03:03;100285.34;;;13.13;100.00
23473;BME280;11909;52.516;13.564;2022-09-13T07:05:29;100279.75;;;13.18;100.00
23473;BME280;11909;52.516;13.564;2022-09-13T07:07:56;100274.13;;;13.23;100.00
23473;BME280;11909;52.516;13.564;2022-09-13T07:10:22;100259.94;;;13.30;100.00
23473;BME280;11909;52.516;13.564;2022-09-13T07:12:49;100261.72;;;13.34;100.00
23473;BME280;11909;52.516;13.564;2022-09-13T07:15:17;100267.94;;;13.40;100.00
23473;BME280;11909;52.516;13.564;2022-09-13T07:17:43;100265.50;;;13.39;100.00
23473;BME280;11909;52.516;13.564;2022-09-13T07:20:09;100257.94;;;13.44;100.00
23473;BME280;11909;52.516;13.564;2022-09-13T07:22:36;100243.53;;;13.47;100.00
23473;BME280;11909;52.516;13.564;2022-09-13T07:25:02;100239.56;;;13.54;100.00
23473;BME280;11909;52.516;13.564;2022-09-13T07:27:29;100249.63;;;13.58;100.00
23473;BME280;11909;52.516;13.564;2022-09-13T07:29:56;100256.34;;;13.66;100.00
23473;BME280;11909;52.516;13.564;2022-09-13T07:32:24;100254.22;;;13.63;100.00
23473;BME280;11909;52.516;13.564;2022-09-13T07:34:50;100254.56;;;13.70;100.00
23473;BME280;11909;52.516;13.564;2022-09-13T07:37:16;100249.38;;;13.69;100.00
23473;BME280;11909;52.516;13.564;2022-09-13T07:39:43;100247.44;;;13.69;100.00
23473;BME280;11909;52.516;13.564;2022-09-13T07:42:09;100249.25;;;13.74;100.00
23473;BME280;11909;52.516;13.564;2022-09-13T07:44:36;100253.97;;;13.73;100.00
23473;BME280;11909;52.516;13.564;2022-09-13T07:47:02;100262.91;;;13.79;100.00
23473;BME280;11909;52.516;13.564;2022-09-13T07:49:30;100257.59;;;13.83;100.00
23473;BME280;11909;52.516;13.564;2022-09-13T07:51:56;100258.09;;;13.85;100.00
23473;BME280;11909;52.516;13.564;2022-09-13T07:54:23;100251.44;;;13.86;100.00
23473;BME280;11909;52.516;13.564;2022-09-13T07:56:49;100249.19;;;13.88;100.00
23473;BME280;11909;52.516;13.564;2022-09-13T07:59:16;100254.69;;;13.88;100.00
23473;BME280;11909;52.516;13.564;2022-09-13T08:01:45;100249.03;;;13.93;100.00
23473;BME280;11909;52.516;13.564;2022-09-13T08:04:14;100244.34;;;13.94;100.00
23473;BME280;11909;52.516;13.564;2022-09-13T08:06:43;100252.28;;;13.95;100.00
23473;BME280;11909;52.516;13.564;2022-09-13T08:09:11;100238.69;;;13.99;100.00
23473;BME280;11909;52.516;13.564;2022-09-13T08:11:39;100240.19;;;14.05;100.00
23473;BME280;11909;52.516;13.564;2022-09-13T08:14:08;100231.78;;;14.10;100.00
23473;BME280;11909;52.516;13.564;2022-09-13T08:16:35;100228.56;;;14.17;100.00
23473;BME280;11909;52.516;13.564;2022-09-13T08:19:04;100224.66;;;14.18;100.00
23473;BME280;11909;52.516;13.564;2022-09-13T08:21:32;100239.28;;;14.18;100.00
23473;BME280;11909;52.516;13.564;2022-09-13T08:24:01;100240.31;;;14.31;100.00
23473;BME280;11909;52.516;13.564;2022-09-13T08:26:28;100233.47;;;14.29;100.00
23473;BME280;11909;52.516;13.564;2022-09-13T08:28:56;100234.34;;;14.38;100.00
23473;BME280;11909;52.516;13.564;2022-09-13T08:31:23;100239.06;;;14.46;100.00
23473;BME280;11909;52.516;13.564;2022-09-13T08:33:50;100227.41;;;14.58;100.00
23473;BME280;11909;52.516;13.564;2022-09-13T08:36:18;100235.25;;;14.65;100.00
23473;BME280;11909;52.516;13.564;2022-09-13T08:38:48;100233.78;;;14.59;100.00
23473;BME280;11909;52.516;13.564;2022-09-13T08:41:32;100238.16;;;14.60;100.00
23473;BME280;11909;52.516;13.564;2022-09-13T08:44:03;100238.50;;;14.67;100.00
23473;BME280;11909;52.516;13.564;2022-09-13T08:46:36;100249.91;;;14.74;99.68
23473;BME280;11909;52.516;13.564;2022-09-13T08:49:09;100245.97;;;14.67;99.68
23473;BME280;11909;52.516;13.564;2022-09-13T08:51:40;100250.97;;;14.65;100.00
23473;BME280;11909;52.516;13.564;2022-09-13T08:54:13;100253.94;;;14.68;100.00
23473;BME280;11909;52.516;13.564;2022-09-13T08:56:45;100253.19;;;14.76;100.00
23473;BME280;11909;52.516;13.564;2022-09-13T08:59:43;100248.00;;;14.84;100.00
23473;BME280;11909;52.516;13.564;2022-09-13T09:02:21;100240.88;;;14.91;99.24
23473;BME280;11909;52.516;13.564;2022-09-13T09:04:54;100227.38;;;14.99;99.72
23473;BME280;11909;52.516;13.564;2022-09-13T09:07:26;100226.91;;;15.05;99.37
23473;BME280;11909;52.516;13.564;2022-09-13T09:09:54;100229.34;;;15.16;99.30
23473;BME280;11909;52.516;13.564;2022-09-13T09:12:27;100226.75;;;15.28;98.75
23473;BME280;11909;52.516;13.564;2022-09-13T09:15:02;100228.03;;;15.31;99.15
23473;BME280;11909;52.516;13.564;2022-09-13T09:17:39;100223.81;;;15.33;98.27
23473;BME280;11909;52.516;13.564;2022-09-13T09:20:18;100224.00;;;15.37;97.55
23473;BME280;11909;52.516;13.564;2022-09-13T09:22:48;100224.00;;;15.46;97.70
23473;BME280;11909;52.516;13.564;2022-09-13T09:25:16;100217.63;;;15.54;98.15
23473;BME280;11909;52.516;13.564;2022-09-13T09:27:45;100224.75;;;15.73;95.59
23473;BME280;11909;52.516;13.564;2022-09-13T09:30:12;100224.09;;;15.85;95.95
23473;BME280;11909;52.516;13.564;2022-09-13T09:32:46;100228.91;;;16.14;95.07
23473;BME280;11909;52.516;13.564;2022-09-13T09:35:26;100243.50;;;16.32;90.47
23473;BME280;11909;52.516;13.564;2022-09-13T09:38:18;100249.03;;;16.32;92.39
23473;BME280;11909;52.516;13.564;2022-09-13T09:40:49;100220.69;;;16.36;93.60
23473;BME280;11909;52.516;13.564;2022-09-13T09:43:22;100233.66;;;16.44;92.32
23473;BME280;11909;52.516;13.564;2022-09-13T09:45:52;100229.91;;;16.48;92.40
23473;BME280;11909;52.516;13.564;2022-09-13T09:48:34;100223.84;;;16.55;93.16
23473;BME280;11909;52.516;13.564;2022-09-13T09:51:04;100233.31;;;16.84;88.79
23473;BME280;11909;52.516;13.564;2022-09-13T09:53:36;100215.94;;;16.96;90.44
23473;BME280;11909;52.516;13.564;2022-09-13T09:56:18;100219.22;;;17.19;87.81
23473;BME280;11909;52.516;13.564;2022-09-13T09:58:46;100223.13;;;17.40;85.06
23473;BME280;11909;52.516;13.564;2022-09-13T10:01:20;100231.03;;;17.50;86.34
23473;BME280;11909;52.516;13.564;2022-09-13T10:03:53;100231.84;;;17.51;86.83
23473;BME280;11909;52.516;13.564;2022-09-13T10:06:24;100233.94;;;17.54;85.52
23473;BME280;11909;52.516;13.564;2022-09-13T10:08:55;100220.69;;;17.59;87.69
23473;BME280;11909;52.516;13.564;2022-09-13T10:11:23;100222.22;;;17.69;84.13
23473;BME280;11909;52.516;13.564;2022-09-13T10:14:03;100214.59;;;17.78;82.82
23473;BME280;11909;52.516;13.564;2022-09-13T10:16:30;100213.34;;;17.88;82.38
23473;BME280;11909;52.516;13.564;2022-09-13T10:19:19;100222.69;;;18.05;81.52
23473;BME280;11909;52.516;13.564;2022-09-13T10:21:58;100202.69;;;18.12;82.20
23473;BME280;11909;52.516;13.564;2022-09-13T10:24:26;100207.88;;;18.13;82.13
23473;BME280;11909;52.516;13.564;2022-09-13T10:26:52;100215.59;;;18.08;81.32
23473;BME280;11909;52.516;13.564;2022-09-13T10:29:21;100229.84;;;18.06;80.32
23473;BME280;11909;52.516;13.564;2022-09-13T10:31:51;100221.16;;;18.08;81.23
23473;BME280;11909;52.516;13.564;2022-09-13T10:34:22;100217.38;;;18.12;79.97
23473;BME280;11909;52.516;13.564;2022-09-13T10:36:53;100215.50;;;18.16;79.78
23473;BME280;11909;52.516;13.564;2022-09-13T10:39:21;100213.22;;;18.31;79.50
23473;BME280;11909;52.516;13.564;2022-09-13T10:41:51;100208.13;;;18.33;79.48
23473;BME280;11909;52.516;13.564;2022-09-13T10:44:28;100203.50;;;18.25;80.23
23473;BME280;11909;52.516;13.564;2022-09-13T10:46:55;100204.28;;;18.25;81.44
23473;BME280;11909;52.516;13.564;2022-09-13T10:49:34;100201.75;;;18.20;79.62
23473;BME280;11909;52.516;13.564;2022-09-13T10:52:22;100207.91;;;18.26;78.97
23473;BME280;11909;52.516;13.564;2022-09-13T10:54:49;100194.22;;;18.20;78.83
23473;BME280;11909;52.516;13.564;2022-09-13T10:57:36;100184.03;;;18.12;80.71
23473;BME280;11909;52.516;13.564;2022-09-13T11:00:08;100181.25;;;18.12;82.50
23473;BME280;11909;52.516;13.564;2022-09-13T11:02:45;100187.28;;;18.14;81.49
23473;BME280;11909;52.516;13.564;2022-09-13T11:05:20;100183.34;;;18.15;82.44
23473;BME280;11909;52.516;13.564;2022-09-13T11:08:06;100180.47;;;18.12;83.02
23473;BME280;11909;52.516;13.564;2022-09-13T11:10:44;100181.97;;;18.09;84.07
23473;BME280;11909;52.516;13.564;2022-09-13T11:13:23;100185.06;;;18.08;85.40
23473;BME280;11909;52.516;13.564;2022-09-13T11:15:58;100176.06;;;18.11;85.59
23473;BME280;11909;52.516;13.564;2022-09-13T11:18:43;100183.91;;;18.09;82.52
23473;BME280;11909;52.516;13.564;2022-09-13T11:21:26;100185.91;;;18.08;82.56
23473;BME280;11909;52.516;13.564;2022-09-13T11:24:23;100181.97;;;18.09;83.65
23473;BME280;11909;52.516;13.564;2022-09-13T11:26:59;100188.09;;;18.15;79.98
23473;BME280;11909;52.516;13.564;2022-09-13T11:29:50;100177.78;;;18.15;81.22
23473;BME280;11909;52.516;13.564;2022-09-13T11:32:33;100180.66;;;18.06;81.73
23473;BME280;11909;52.516;13.564;2022-09-13T11:35:23;100176.81;;;17.99;81.89
23473;BME280;11909;52.516;13.564;2022-09-13T11:37:59;100167.91;;;17.93;83.86
23473;BME280;11909;52.516;13.564;2022-09-13T11:40:41;100169.53;;;17.94;84.29
23473;BME280;11909;52.516;13.564;2022-09-13T11:43:25;100176.72;;;17.95;84.54
23473;BME280;11909;52.516;13.564;2022-09-13T11:46:02;100176.81;;;17.86;84.94
23473;BME280;11909;52.516;13.564;2022-09-13T11:49:00;100175.88;;;17.95;83.43
23473;BME280;11909;52.516;13.564;2022-09-13T11:51:37;100173.00;;;17.91;83.98
23473;BME280;11909;52.516;13.564;2022-09-13T11:54:24;100168.63;;;17.90;85.13
23473;BME280;11909;52.516;13.564;2022-09-13T11:56:56;100174.72;;;17.96;84.59
23473;BME280;11909;52.516;13.564;2022-09-13T11:59:35;100172.06;;;17.87;85.88
23473;BME280;11909;52.516;13.564;2022-09-13T12:02:12;100170.44;;;17.86;86.24
23473;BME280;11909;52.516;13.564;2022-09-13T12:04:46;100166.13;;;17.76;87.25
23473;BME280;11909;52.516;13.564;2022-09-13T12:07:24;100166.13;;;17.76;88.13
23473;BME280;11909;52.516;13.564;2022-09-13T12:09:57;100160.34;;;17.69;88.17
23473;BME280;11909;52.516;13.564;2022-09-13T12:12:31;100158.41;;;17.69;89.28
23473;BME280;11909;52.516;13.564;2022-09-13T12:15:02;100165.28;;;17.63;89.80
23473;BME280;11909;52.516;13.564;2022-09-13T12:17:36;100165.56;;;17.70;89.34
23473;BME280;11909;52.516;13.564;2022-09-13T12:20:12;100170.75;;;17.72;89.12
23473;BME280;11909;52.516;13.564;2022-09-13T12:22:41;100158.25;;;17.66;89.22
23473;BME280;11909;52.516;13.564;2022-09-13T12:25:18;100162.53;;;17.63;89.12
23473;BME280;11909;52.516;13.564;2022-09-13T12:27:50;100169.34;;;17.66;89.78
23473;BME280;11909;52.516;13.564;2022-09-13T12:30:20;100158.81;;;17.59;90.46
23473;BME280;11909;52.516;13.564;2022-09-13T12:32:48;100155.47;;;17.53;90.67
23473;BME280;11909;52.516;13.564;2022-09-13T12:35:21;100161.47;;;17.55;90.78
23473;BME280;11909;52.516;13.564;2022-09-13T12:38:02;100161.03;;;17.53;89.62
23473;BME280;11909;52.516;13.564;2022-09-13T12:41:08;100156.94;;;17.51;89.63
23473;BME280;11909;52.516;13.564;2022-09-13T12:43:55;100167.13;;;17.59;89.81
23473;BME280;11909;52.516;13.564;2022-09-13T12:46:51;100166.44;;;17.62;90.83
23473;BME280;11909;52.516;13.564;2022-09-13T12:49:42;100157.41;;;17.53;91.21
23473;BME280;11909;52.516;13.564;2022-09-13T12:52:30;100152.78;;;17.44;92.32
23473;BME280;11909;52.516;13.564;2022-09-13T12:55:25;100152.31;;;17.42;93.48
23473;BME280;11909;52.516;13.564;2022-09-13T12:58:02;100147.44;;;17.39;93.66
23473;BME280;11909;52.516;13.564;2022-09-13T13:00:39;100142.69;;;17.40;94.29
23473;BME280;11909;52.516;13.564;2022-09-13T13:03:13;100146.41;;;17.44;94.36
23473;BME280;11909;52.516;13.564;2022-09-13T13:05:43;100153.44;;;17.41;94.52
23473;BME280;11909;52.516;13.564;2022-09-13T13:08:24;100144.56;;;17.48;95.03